sensor_id;sensor_type;location;lat;lon;timestamp;temperature;humidity
5796;DHT22;2924;51.458;7.046;2023-04-03T00:00:32;-0.30;99.90
5796;DHT22;2924;51.458;7.046;2023-04-03T00:02:58;-0.40;99.90
5796;DHT22;2924;51.458;7.046;2023-04-03T00:05:23;-0.70;99.90
5796;DHT22;2924;51.458;7.046;2023-04-03T00:07:49;-0.70;99.90
5796;DHT22;2924;51.458;7.046;2023-04-03T00:10:15;-0.70;99.90
5796;DHT22;2924;51.458;7.046;2023-04-03T00:12:41;-0.60;99.90
5796;DHT22;2924;51.458;7.046;2023-04-03T00:15:07;-0.70;99.90
5796;DHT22;2924;51.458;7.046;2023-04-03T00:17:33;-0.70;99.90
5796;DHT22;2924;51.458;7.046;2023-04-03T00:19:59;-0.80;99.90
5796;DHT22;2924;51.458;7.046;2023-04-03T00:22:24;-0.70;99.90
5796;DHT22;2924;51.458;7.046;2023-04-03T00:24:52;-0.50;99.90
5796;DHT22;2924;51.458;7.046;2023-04-03T00:27:17;-0.60;99.90
5796;DHT22;2924;51.458;7.046;2023-04-03T00:29:43;-0.60;99.90
5796;DHT22;2924;51.458;7.046;2023-04-03T00:32:08;-0.60;99.90
5796;DHT22;2924;51.458;7.046;2023-04-03T00:34:34;-0.60;99.90
5796;DHT22;2924;51.458;7.046;2023-04-03T00:36:59;-0.70;99.90
5796;DHT22;2924;51.458;7.046;2023-04-03T00:39:25;-0.80;99.90
5796;DHT22;2924;51.458;7.046;2023-04-03T00:41:50;-0.90;99.90
5796;DHT22;2924;51.458;7.046;2023-04-03T00:47:11;-0.90;99.90
5796;DHT22;2924;51.458;7.046;2023-04-03T00:49:39;-0.70;99.90
5796;DHT22;2924;51.458;7.046;2023-04-03T00:52:08;-0.70;99.90
5796;DHT22;2924;51.458;7.046;2023-04-03T00:54:36;-0.70;99.90
5796;DHT22;2924;51.458;7.046;2023-04-03T00:57:03;-0.60;99.90
5796;DHT22;2924;51.458;7.046;2023-04-03T00:59:36;-0.50;99.90
5796;DHT22;2924;51.458;7.046;2023-04-03T01:02:03;-0.40;99.90
5796;DHT22;2924;51.458;7.046;2023-04-03T01:04:37;-0.50;99.90
5796;DHT22;2924;51.458;7.046;2023-04-03T01:07:08;-0.60;99.90
5796;DHT22;2924;51.458;7.046;2023-04-03T01:09:35;-0.60;99.90
5796;DHT22;2924;51.458;7.046;2023-04-03T01:12:25;-0.70;99.90
5796;DHT22;2924;51.458;7.046;2023-04-03T01:14:56;-0.70;99.90
5796;DHT22;2924;51.458;7.046;2023-04-03T01:17:40;-0.60;99.90
5796;DHT22;2924;51.458;7.046;2023-04-03T01:20:31;-0.70;99.90
5796;DHT22;2924;51.458;7.046;2023-04-03T01:25:42;-0.50;99.90
5796;DHT22;2924;51.458;7.046;2023-04-03T01:28:12;-0.20;99.90
5796;DHT22;2924;51.458;7.046;2023-04-03T01:33:31;0.30;99.90
5796;DHT22;2924;51.458;7.046;2023-04-03T01:35:57;0.30;99.90
5796;DHT22;2924;51.458;7.046;2023-04-03T01:38:22;0.40;99.90
5796;DHT22;2924;51.458;7.046;2023-04-03T01:40:48;0.30;99.90
5796;DHT22;2924;51.458;7.046;2023-04-03T01:43:14;0.20;99.90
5796;DHT22;2924;51.458;7.046;2023-04-03T01:45:39;0.30;99.90
5796;DHT22;2924;51.458;7.046;2023-04-03T01:48:05;0.30;99.90
5796;DHT22;2924;51.458;7.046;2023-04-03T01:50:31;0.20;99.90
5796;DHT22;2924;51.458;7.046;2023-04-03T01:52:57;0.20;99.90
5796;DHT22;2924;51.458;7.046;2023-04-03T01:55:22;0.00;99.90
5796;DHT22;2924;51.458;7.046;2023-04-03T01:57:48;0.00;99.90
5796;DHT22;2924;51.458;7.046;2023-04-03T02:00:14;0.00;99.90
5796;DHT22;2924;51.458;7.046;2023-04-03T02:02:39;0.00;99.90
5796;DHT22;2924;51.458;7.046;2023-04-03T02:05:05;0.00;99.90
5796;DHT22;2924;51.458;7.046;2023-04-03T02:07:31;0.10;99.90
5796;DHT22;2924;51.458;7.046;2023-04-03T02:09:57;0.00;99.90
5796;DHT22;2924;51.458;7.046;2023-04-03T02:12:22;0.10;99.90
5796;DHT22;2924;51.458;7.046;2023-04-03T02:14:48;0.20;99.90
5796;DHT22;2924;51.458;7.046;2023-04-03T02:17:13;0.20;99.90
5796;DHT22;2924;51.458;7.046;2023-04-03T02:19:39;0.10;99.90
5796;DHT22;2924;51.458;7.046;2023-04-03T02:22:05;0.10;99.90
5796;DHT22;2924;51.458;7.046;2023-04-03T02:24:31;0.00;99.90
5796;DHT22;2924;51.458;7.046;2023-04-03T02:26:57;0.10;99.90
5796;DHT22;2924;51.458;7.046;2023-04-03T02:29:22;0.10;99.90
5796;DHT22;2924;51.458;7.046;2023-04-03T02:31:49;0.20;99.90
5796;DHT22;2924;51.458;7.046;2023-04-03T02:34:14;0.20;99.90
5796;DHT22;2924;51.458;7.046;2023-04-03T02:36:40;0.20;99.90
5796;DHT22;2924;51.458;7.046;2023-04-03T02:39:05;0.10;99.90
5796;DHT22;2924;51.458;7.046;2023-04-03T02:41:31;0.10;99.90
5796;DHT22;2924;51.458;7.046;2023-04-03T02:44:04;0.10;99.90
5796;DHT22;2924;51.458;7.046;2023-04-03T02:46:30;0.10;99.90
5796;DHT22;2924;51.458;7.046;2023-04-03T02:48:56;0.00;99.90
5796;DHT22;2924;51.458;7.046;2023-04-03T02:51:21;0.00;99.90
5796;DHT22;2924;51.458;7.046;2023-04-03T02:53:48;-0.10;99.90
5796;DHT22;2924;51.458;7.046;2023-04-03T02:56:14;-0.20;99.90
5796;DHT22;2924;51.458;7.046;2023-04-03T02:58:40;-0.30;99.90
5796;DHT22;2924;51.458;7.046;2023-04-03T03:01:06;-0.30;99.90
5796;DHT22;2924;51.458;7.046;2023-04-03T03:03:31;-0.30;99.90
5796;DHT22;2924;51.458;7.046;2023-04-03T03:06:04;-0.30;99.90
5796;DHT22;2924;51.458;7.046;2023-04-03T03:08:30;-0.10;99.90
5796;DHT22;2924;51.458;7.046;2023-04-03T03:10:56;-0.20;99.90
5796;DHT22;2924;51.458;7.046;2023-04-03T03:13:22;-0.20;99.90
5796;DHT22;2924;51.458;7.046;2023-04-03T03:15:47;-0.20;99.90
5796;DHT22;2924;51.458;7.046;2023-04-03T03:18:13;-0.30;99.90
5796;DHT22;2924;51.458;7.046;2023-04-03T03:20:39;-0.30;99.90
5796;DHT22;2924;51.458;7.046;2023-04-03T03:23:04;-0.40;99.90
5796;DHT22;2924;51.458;7.046;2023-04-03T03:25:30;-0.30;99.90
5796;DHT22;2924;51.458;7.046;2023-04-03T03:27:55;-0.30;99.90
5796;DHT22;2924;51.458;7.046;2023-04-03T03:30:21;-0.40;99.90
5796;DHT22;2924;51.458;7.046;2023-04-03T03:32:47;-0.20;99.90
5796;DHT22;2924;51.458;7.046;2023-04-03T03:35:12;-0.20;99.90
5796;DHT22;2924;51.458;7.046;2023-04-03T03:37:38;-0.10;99.90
5796;DHT22;2924;51.458;7.046;2023-04-03T03:40:04;-0.10;99.90
5796;DHT22;2924;51.458;7.046;2023-04-03T03:42:29;-0.20;99.90
5796;DHT22;2924;51.458;7.046;2023-04-03T03:44:55;-0.10;99.90
5796;DHT22;2924;51.458;7.046;2023-04-03T03:47:21;0.00;99.90
5796;DHT22;2924;51.458;7.046;2023-04-03T03:49:46;-0.10;99.90
5796;DHT22;2924;51.458;7.046;2023-04-03T03:52:12;-0.10;99.90
5796;DHT22;2924;51.458;7.046;2023-04-03T03:54:37;-0.10;99.90
5796;DHT22;2924;51.458;7.046;2023-04-03T03:57:03;-0.20;99.90
5796;DHT22;2924;51.458;7.046;2023-04-03T03:59:29;-0.20;99.90
5796;DHT22;2924;51.458;7.046;2023-04-03T04:01:54;-0.40;99.90
5796;DHT22;2924;51.458;7.046;2023-04-03T04:04:20;-0.40;99.90
5796;DHT22;2924;51.458;7.046;2023-04-03T04:06:46;-0.40;99.90
5796;DHT22;2924;51.458;7.046;2023-04-03T04:09:12;-0.30;99.90
5796;DHT22;2924;51.458;7.046;2023-04-03T04:11:37;-0.30;99.90
5796;DHT22;2924;51.458;7.046;2023-04-03T04:14:05;-0.30;99.90
5796;DHT22;2924;51.458;7.046;2023-04-03T04:16:31;-0.40;99.90
5796;DHT22;2924;51.458;7.046;2023-04-03T04:18:56;-0.40;99.90
5796;DHT22;2924;51.458;7.046;2023-04-03T04:21:22;-0.30;99.90
5796;DHT22;2924;51.458;7.046;2023-04-03T04:23:47;-0.40;99.90
5796;DHT22;2924;51.458;7.046;2023-04-03T04:26:13;-0.30;99.90
5796;DHT22;2924;51.458;7.046;2023-04-03T04:28:38;-0.30;99.90
5796;DHT22;2924;51.458;7.046;2023-04-03T04:31:04;-0.30;99.90
5796;DHT22;2924;51.458;7.046;2023-04-03T04:33:29;-0.30;99.90
5796;DHT22;2924;51.458;7.046;2023-04-03T04:35:55;-0.40;99.90
5796;DHT22;2924;51.458;7.046;2023-04-03T04:38:21;-0.40;99.90
5796;DHT22;2924;51.458;7.046;2023-04-03T04:40:47;-0.50;99.90
5796;DHT22;2924;51.458;7.046;2023-04-03T04:43:13;-0.50;99.90
5796;DHT22;2924;51.458;7.046;2023-04-03T04:45:40;-0.50;99.90
5796;DHT22;2924;51.458;7.046;2023-04-03T04:48:06;-0.50;99.90
5796;DHT22;2924;51.458;7.046;2023-04-03T04:50:31;-0.50;99.90
5796;DHT22;2924;51.458;7.046;2023-04-03T04:52:57;-0.50;99.90
5796;DHT22;2924;51.458;7.046;2023-04-03T04:55:23;-0.50;99.90
5796;DHT22;2924;51.458;7.046;2023-04-03T04:57:48;-0.60;99.90
5796;DHT22;2924;51.458;7.046;2023-04-03T05:00:14;-0.70;99.90
5796;DHT22;2924;51.458;7.046;2023-04-03T05:02:40;-0.70;99.90
5796;DHT22;2924;51.458;7.046;2023-04-03T05:05:06;-0.70;99.90
5796;DHT22;2924;51.458;7.046;2023-04-03T05:07:32;-0.70;99.90
5796;DHT22;2924;51.458;7.046;2023-04-03T05:09:58;-0.70;99.90
5796;DHT22;2924;51.458;7.046;2023-04-03T05:12:23;-0.70;99.90
5796;DHT22;2924;51.458;7.046;2023-04-03T05:14:49;-0.70;99.90
5796;DHT22;2924;51.458;7.046;2023-04-03T05:17:15;-0.70;99.90
5796;DHT22;2924;51.458;7.046;2023-04-03T05:19:40;-0.60;99.90
5796;DHT22;2924;51.458;7.046;2023-04-03T05:22:06;-0.60;99.90
5796;DHT22;2924;51.458;7.046;2023-04-03T05:24:32;-0.70;99.90
5796;DHT22;2924;51.458;7.046;2023-04-03T05:26:57;-0.60;99.90
5796;DHT22;2924;51.458;7.046;2023-04-03T05:29:23;-0.50;99.90
5796;DHT22;2924;51.458;7.046;2023-04-03T05:31:51;-0.60;99.90
5796;DHT22;2924;51.458;7.046;2023-04-03T05:34:17;-0.50;99.90
5796;DHT22;2924;51.458;7.046;2023-04-03T05:36:43;-0.40;99.90
5796;DHT22;2924;51.458;7.046;2023-04-03T05:39:09;-0.40;99.90
5796;DHT22;2924;51.458;7.046;2023-04-03T05:41:34;-0.50;99.90
5796;DHT22;2924;51.458;7.046;2023-04-03T05:44:00;-0.50;99.90
5796;DHT22;2924;51.458;7.046;2023-04-03T05:46:26;-0.50;99.90
5796;DHT22;2924;51.458;7.046;2023-04-03T05:48:52;-0.40;99.90
5796;DHT22;2924;51.458;7.046;2023-04-03T05:51:25;-0.30;99.90
5796;DHT22;2924;51.458;7.046;2023-04-03T05:54:00;-0.20;99.90
5796;DHT22;2924;51.458;7.046;2023-04-03T05:56:26;-0.20;99.90
5796;DHT22;2924;51.458;7.046;2023-04-03T05:58:52;-0.20;99.90
5796;DHT22;2924;51.458;7.046;2023-04-03T06:01:17;-0.20;99.90
5796;DHT22;2924;51.458;7.046;2023-04-03T06:03:43;-0.20;99.90
5796;DHT22;2924;51.458;7.046;2023-04-03T06:06:13;-0.10;99.90
5796;DHT22;2924;51.458;7.046;2023-04-03T06:08:39;-0.10;99.90
5796;DHT22;2924;51.458;7.046;2023-04-03T06:11:05;0.00;99.90
5796;DHT22;2924;51.458;7.046;2023-04-03T06:13:31;0.10;99.90
5796;DHT22;2924;51.458;7.046;2023-04-03T06:15:57;0.20;99.90
5796;DHT22;2924;51.458;7.046;2023-04-03T06:18:23;0.30;99.90
5796;DHT22;2924;51.458;7.046;2023-04-03T06:20:48;0.60;99.90
5796;DHT22;2924;51.458;7.046;2023-04-03T06:23:14;0.90;99.90
5796;DHT22;2924;51.458;7.046;2023-04-03T06:25:39;1.00;99.90
5796;DHT22;2924;51.458;7.046;2023-04-03T06:28:05;1.30;99.90
5796;DHT22;2924;51.458;7.046;2023-04-03T06:30:34;1.70;99.90
5796;DHT22;2924;51.458;7.046;2023-04-03T06:33:00;2.10;99.90
5796;DHT22;2924;51.458;7.046;2023-04-03T06:35:26;2.40;99.90
5796;DHT22;2924;51.458;7.046;2023-04-03T06:37:54;2.40;99.90
5796;DHT22;2924;51.458;7.046;2023-04-03T06:40:23;2.50;99.90
5796;DHT22;2924;51.458;7.046;2023-04-03T06:42:49;2.30;99.90
5796;DHT22;2924;51.458;7.046;2023-04-03T06:45:15;2.40;99.90
5796;DHT22;2924;51.458;7.046;2023-04-03T06:47:40;2.90;99.90
5796;DHT22;2924;51.458;7.046;2023-04-03T06:50:06;3.00;99.90
5796;DHT22;2924;51.458;7.046;2023-04-03T06:52:32;2.90;99.90
5796;DHT22;2924;51.458;7.046;2023-04-03T06:54:58;3.20;99.90
5796;DHT22;2924;51.458;7.046;2023-04-03T06:57:25;3.70;99.90
5796;DHT22;2924;51.458;7.046;2023-04-03T06:59:50;3.40;99.90
5796;DHT22;2924;51.458;7.046;2023-04-03T07:02:16;3.90;99.90
5796;DHT22;2924;51.458;7.046;2023-04-03T07:04:42;4.40;99.90
5796;DHT22;2924;51.458;7.046;2023-04-03T07:07:08;4.90;99.90
5796;DHT22;2924;51.458;7.046;2023-04-03T07:09:33;5.20;99.90
5796;DHT22;2924;51.458;7.046;2023-04-03T07:11:59;5.10;99.90
5796;DHT22;2924;51.458;7.046;2023-04-03T07:14:24;4.90;99.90
5796;DHT22;2924;51.458;7.046;2023-04-03T07:16:50;4.50;99.90
5796;DHT22;2924;51.458;7.046;2023-04-03T07:19:16;4.40;99.90
5796;DHT22;2924;51.458;7.046;2023-04-03T07:21:43;5.20;99.90
5796;DHT22;2924;51.458;7.046;2023-04-03T07:24:09;5.40;99.90
5796;DHT22;2924;51.458;7.046;2023-04-03T07:26:34;5.70;99.90
5796;DHT22;2924;51.458;7.046;2023-04-03T07:29:00;5.30;99.90
5796;DHT22;2924;51.458;7.046;2023-04-03T07:31:26;5.00;99.90
5796;DHT22;2924;51.458;7.046;2023-04-03T07:33:51;5.20;99.90
5796;DHT22;2924;51.458;7.046;2023-04-03T07:36:20;5.80;99.90
5796;DHT22;2924;51.458;7.046;2023-04-03T07:38:46;6.20;99.90
5796;DHT22;2924;51.458;7.046;2023-04-03T07:41:14;6.70;99.90
5796;DHT22;2924;51.458;7.046;2023-04-03T07:43:40;6.30;99.90
5796;DHT22;2924;51.458;7.046;2023-04-03T07:46:07;7.10;99.90
5796;DHT22;2924;51.458;7.046;2023-04-03T07:48:34;8.20;99.90
5796;DHT22;2924;51.458;7.046;2023-04-03T07:51:01;8.20;99.90
5796;DHT22;2924;51.458;7.046;2023-04-03T07:53:28;7.40;99.90
5796;DHT22;2924;51.458;7.046;2023-04-03T07:55:54;6.60;99.90
5796;DHT22;2924;51.458;7.046;2023-04-03T07:58:21;5.80;99.90
5796;DHT22;2924;51.458;7.046;2023-04-03T08:00:47;6.40;99.90
5796;DHT22;2924;51.458;7.046;2023-04-03T08:03:14;5.90;99.90
5796;DHT22;2924;51.458;7.046;2023-04-03T08:05:43;6.10;99.90
5796;DHT22;2924;51.458;7.046;2023-04-03T08:08:10;7.10;99.90
5796;DHT22;2924;51.458;7.046;2023-04-03T08:10:36;6.70;99.90
5796;DHT22;2924;51.458;7.046;2023-04-03T08:13:03;6.60;99.90
5796;DHT22;2924;51.458;7.046;2023-04-03T08:15:30;6.00;99.90
5796;DHT22;2924;51.458;7.046;2023-04-03T08:17:55;6.40;99.90
5796;DHT22;2924;51.458;7.046;2023-04-03T08:20:21;6.80;99.90
5796;DHT22;2924;51.458;7.046;2023-04-03T08:22:47;7.00;99.90
5796;DHT22;2924;51.458;7.046;2023-04-03T08:25:12;7.20;99.90
5796;DHT22;2924;51.458;7.046;2023-04-03T08:27:38;7.10;99.90
5796;DHT22;2924;51.458;7.046;2023-04-03T08:30:04;6.50;99.90
5796;DHT22;2924;51.458;7.046;2023-04-03T08:32:30;7.00;99.90
5796;DHT22;2924;51.458;7.046;2023-04-03T08:34:55;6.90;99.90
5796;DHT22;2924;51.458;7.046;2023-04-03T08:37:21;6.70;99.90
5796;DHT22;2924;51.458;7.046;2023-04-03T08:39:47;6.90;99.90
5796;DHT22;2924;51.458;7.046;2023-04-03T08:45:12;7.70;99.90
5796;DHT22;2924;51.458;7.046;2023-04-03T08:47:47;8.90;99.90
5796;DHT22;2924;51.458;7.046;2023-04-03T08:50:17;9.70;97.60
5796;DHT22;2924;51.458;7.046;2023-04-03T08:52:55;9.90;98.00
5796;DHT22;2924;51.458;7.046;2023-04-03T08:55:42;10.60;97.80
5796;DHT22;2924;51.458;7.046;2023-04-03T08:58:24;10.00;97.00
5796;DHT22;2924;51.458;7.046;2023-04-03T09:01:04;10.20;96.10
5796;DHT22;2924;51.458;7.046;2023-04-03T09:03:37;9.40;96.70
5796;DHT22;2924;51.458;7.046;2023-04-03T09:06:20;8.70;95.30
5796;DHT22;2924;51.458;7.046;2023-04-03T09:11:47;6.80;96.30
5796;DHT22;2924;51.458;7.046;2023-04-03T09:16:59;6.90;95.30
5796;DHT22;2924;51.458;7.046;2023-04-03T09:22:03;6.50;96.50
5796;DHT22;2924;51.458;7.046;2023-04-03T09:24:35;6.90;96.80
5796;DHT22;2924;51.458;7.046;2023-04-03T09:27:05;7.40;96.40
5796;DHT22;2924;51.458;7.046;2023-04-03T09:29:37;7.30;94.80
5796;DHT22;2924;51.458;7.046;2023-04-03T09:32:20;7.70;94.70
5796;DHT22;2924;51.458;7.046;2023-04-03T09:34:47;8.10;95.20
5796;DHT22;2924;51.458;7.046;2023-04-03T09:37:34;8.80;95.20
5796;DHT22;2924;51.458;7.046;2023-04-03T09:40:02;9.00;93.20
5796;DHT22;2924;51.458;7.046;2023-04-03T09:42:30;8.40;93.50
5796;DHT22;2924;51.458;7.046;2023-04-03T09:44:58;8.20;94.40
5796;DHT22;2924;51.458;7.046;2023-04-03T09:47:26;8.20;92.10
5796;DHT22;2924;51.458;7.046;2023-04-03T09:52:47;7.90;91.40
5796;DHT22;2924;51.458;7.046;2023-04-03T09:55:27;7.60;91.90
5796;DHT22;2924;51.458;7.046;2023-04-03T09:57:58;8.10;92.00
5796;DHT22;2924;51.458;7.046;2023-04-03T10:00:35;8.50;91.50
5796;DHT22;2924;51.458;7.046;2023-04-03T10:03:01;8.10;91.70
5796;DHT22;2924;51.458;7.046;2023-04-03T10:05:32;8.20;91.90
5796;DHT22;2924;51.458;7.046;2023-04-03T10:10:41;8.40;91.40
5796;DHT22;2924;51.458;7.046;2023-04-03T10:15:41;7.40;92.30
5796;DHT22;2924;51.458;7.046;2023-04-03T10:21:15;7.50;91.90
5796;DHT22;2924;51.458;7.046;2023-04-03T10:27:02;7.70;92.10
5796;DHT22;2924;51.458;7.046;2023-04-03T10:29:52;7.80;92.70
5796;DHT22;2924;51.458;7.046;2023-04-03T10:43:21;8.60;91.40
5796;DHT22;2924;51.458;7.046;2023-04-03T10:46:33;8.30;91.50
5796;DHT22;2924;51.458;7.046;2023-04-03T10:51:47;8.90;92.30
5796;DHT22;2924;51.458;7.046;2023-04-03T10:54:24;8.60;92.00
5796;DHT22;2924;51.458;7.046;2023-04-03T10:56:55;8.20;92.40
5796;DHT22;2924;51.458;7.046;2023-04-03T10:59:34;8.10;93.10
5796;DHT22;2924;51.458;7.046;2023-04-03T11:02:07;8.50;93.30
5796;DHT22;2924;51.458;7.046;2023-04-03T11:04:39;8.10;93.30
5796;DHT22;2924;51.458;7.046;2023-04-03T11:07:26;8.60;93.50
5796;DHT22;2924;51.458;7.046;2023-04-03T11:09:55;8.50;93.30
5796;DHT22;2924;51.458;7.046;2023-04-03T11:12:40;8.60;92.70
5796;DHT22;2924;51.458;7.046;2023-04-03T11:15:15;8.50;93.00
5796;DHT22;2924;51.458;7.046;2023-04-03T11:17:48;8.40;93.20
5796;DHT22;2924;51.458;7.046;2023-04-03T11:20:28;7.90;92.90
5796;DHT22;2924;51.458;7.046;2023-04-03T11:25:49;8.20;92.40
5796;DHT22;2924;51.458;7.046;2023-04-03T11:28:15;8.40;92.80
5796;DHT22;2924;51.458;7.046;2023-04-03T11:33:19;8.30;92.90
5796;DHT22;2924;51.458;7.046;2023-04-03T11:35:53;8.60;92.40
5796;DHT22;2924;51.458;7.046;2023-04-03T11:38:25;8.50;92.00
5796;DHT22;2924;51.458;7.046;2023-04-03T11:40:53;8.70;91.90
5796;DHT22;2924;51.458;7.046;2023-04-03T11:43:27;8.80;91.40
5796;DHT22;2924;51.458;7.046;2023-04-03T11:46:02;8.90;92.10
5796;DHT22;2924;51.458;7.046;2023-04-03T11:50:57;8.60;91.00
5796;DHT22;2924;51.458;7.046;2023-04-03T11:53:30;8.30;91.70
5796;DHT22;2924;51.458;7.046;2023-04-03T11:56:01;8.20;91.10
5796;DHT22;2924;51.458;7.046;2023-04-03T11:58:31;8.50;90.70
5796;DHT22;2924;51.458;7.046;2023-04-03T12:01:09;8.50;90.70
5796;DHT22;2924;51.458;7.046;2023-04-03T12:13:35;8.80;91.20
5796;DHT22;2924;51.458;7.046;2023-04-03T12:16:02;8.40;91.20
5796;DHT22;2924;51.458;7.046;2023-04-03T12:48:59;8.70;90.00
5796;DHT22;2924;51.458;7.046;2023-04-03T12:51:44;8.70;89.90
5796;DHT22;2924;51.458;7.046;2023-04-03T12:54:16;8.60;90.20
5796;DHT22;2924;51.458;7.046;2023-04-03T12:56:43;8.60;90.50
5796;DHT22;2924;51.458;7.046;2023-04-03T12:59:26;8.80;90.00
5796;DHT22;2924;51.458;7.046;2023-04-03T13:01:59;9.10;90.80
5796;DHT22;2924;51.458;7.046;2023-04-03T13:04:26;9.20;88.60
5796;DHT22;2924;51.458;7.046;2023-04-03T13:06:55;9.60;88.90
5796;DHT22;2924;51.458;7.046;2023-04-03T13:09:28;9.80;87.70
5796;DHT22;2924;51.458;7.046;2023-04-03T13:12:08;9.30;88.40
5796;DHT22;2924;51.458;7.046;2023-04-03T13:14:36;9.30;88.60
5796;DHT22;2924;51.458;7.046;2023-04-03T13:17:15;8.80;89.10
5796;DHT22;2924;51.458;7.046;2023-04-03T13:19:42;8.40;89.10
5796;DHT22;2924;51.458;7.046;2023-04-03T13:24:53;8.40;90.80
5796;DHT22;2924;51.458;7.046;2023-04-03T13:27:20;8.40;90.70
5796;DHT22;2924;51.458;7.046;2023-04-03T13:29:50;8.70;90.20
5796;DHT22;2924;51.458;7.046;2023-04-03T13:32:22;8.90;90.30
5796;DHT22;2924;51.458;7.046;2023-04-03T13:34:49;8.90;90.20
5796;DHT22;2924;51.458;7.046;2023-04-03T13:40:04;8.80;90.30
5796;DHT22;2924;51.458;7.046;2023-04-03T13:42:38;8.70;90.20
5796;DHT22;2924;51.458;7.046;2023-04-03T13:45:24;8.90;90.00
5796;DHT22;2924;51.458;7.046;2023-04-03T13:48:06;8.70;90.70
5796;DHT22;2924;51.458;7.046;2023-04-03T13:50:33;8.60;90.70
5796;DHT22;2924;51.458;7.046;2023-04-03T13:53:14;8.40;91.10
5796;DHT22;2924;51.458;7.046;2023-04-03T13:58:30;8.60;90.20
5796;DHT22;2924;51.458;7.046;2023-04-03T14:01:14;8.80;90.90
5796;DHT22;2924;51.458;7.046;2023-04-03T14:06:19;8.80;90.00
5796;DHT22;2924;51.458;7.046;2023-04-03T14:08:46;8.70;90.50
5796;DHT22;2924;51.458;7.046;2023-04-03T14:11:24;8.70;90.50
5796;DHT22;2924;51.458;7.046;2023-04-03T14:13:50;8.90;91.10
5796;DHT22;2924;51.458;7.046;2023-04-03T14:16:20;9.20;90.70
5796;DHT22;2924;51.458;7.046;2023-04-03T14:18:47;9.30;90.40
5796;DHT22;2924;51.458;7.046;2023-04-03T14:21:15;8.90;89.30
5796;DHT22;2924;51.458;7.046;2023-04-03T14:23:40;8.80;90.60
5796;DHT22;2924;51.458;7.046;2023-04-03T14:26:16;8.70;90.90
5796;DHT22;2924;51.458;7.046;2023-04-03T14:28:45;8.70;91.00
5796;DHT22;2924;51.458;7.046;2023-04-03T14:31:12;8.90;90.80
5796;DHT22;2924;51.458;7.046;2023-04-03T14:33:38;8.90;90.80
5796;DHT22;2924;51.458;7.046;2023-04-03T14:36:16;8.70;91.00
5796;DHT22;2924;51.458;7.046;2023-04-03T14:38:44;8.70;91.10
5796;DHT22;2924;51.458;7.046;2023-04-03T14:41:14;8.40;91.20
5796;DHT22;2924;51.458;7.046;2023-04-03T14:43:40;8.40;91.30
5796;DHT22;2924;51.458;7.046;2023-04-03T14:46:14;8.50;91.80
5796;DHT22;2924;51.458;7.046;2023-04-03T14:48:40;8.40;91.80
5796;DHT22;2924;51.458;7.046;2023-04-03T14:51:06;8.40;91.60
5796;DHT22;2924;51.458;7.046;2023-04-03T14:53:31;8.50;91.40
5796;DHT22;2924;51.458;7.046;2023-04-03T14:55:58;8.00;91.60
5796;DHT22;2924;51.458;7.046;2023-04-03T14:58:23;8.00;92.00
5796;DHT22;2924;51.458;7.046;2023-04-03T15:00:49;7.70;91.50
5796;DHT22;2924;51.458;7.046;2023-04-03T15:03:17;7.90;92.20
5796;DHT22;2924;51.458;7.046;2023-04-03T15:05:44;8.20;92.00
5796;DHT22;2924;51.458;7.046;2023-04-03T15:08:18;8.20;92.10
5796;DHT22;2924;51.458;7.046;2023-04-03T15:10:44;8.30;91.40
5796;DHT22;2924;51.458;7.046;2023-04-03T15:13:11;8.50;91.50
5796;DHT22;2924;51.458;7.046;2023-04-03T15:15:37;8.00;91.70
5796;DHT22;2924;51.458;7.046;2023-04-03T15:18:03;8.10;92.30
5796;DHT22;2924;51.458;7.046;2023-04-03T15:20:30;8.40;91.70
5796;DHT22;2924;51.458;7.046;2023-04-03T15:22:56;8.20;91.70
5796;DHT22;2924;51.458;7.046;2023-04-03T15:25:23;8.30;91.80
5796;DHT22;2924;51.458;7.046;2023-04-03T15:27:48;8.20;91.30
5796;DHT22;2924;51.458;7.046;2023-04-03T15:30:17;8.20;91.50
5796;DHT22;2924;51.458;7.046;2023-04-03T15:32:43;8.10;91.30
5796;DHT22;2924;51.458;7.046;2023-04-03T15:35:09;8.30;91.60
5796;DHT22;2924;51.458;7.046;2023-04-03T15:37:35;8.30;91.80
5796;DHT22;2924;51.458;7.046;2023-04-03T15:40:00;8.60;91.70
5796;DHT22;2924;51.458;7.046;2023-04-03T15:42:26;8.80;91.30
5796;DHT22;2924;51.458;7.046;2023-04-03T15:44:51;9.20;91.10
5796;DHT22;2924;51.458;7.046;2023-04-03T15:47:17;8.90;90.60
5796;DHT22;2924;51.458;7.046;2023-04-03T15:49:43;8.60;90.70
5796;DHT22;2924;51.458;7.046;2023-04-03T15:52:09;8.80;91.40
5796;DHT22;2924;51.458;7.046;2023-04-03T15:54:34;9.20;91.20
5796;DHT22;2924;51.458;7.046;2023-04-03T15:57:00;9.60;91.40
5796;DHT22;2924;51.458;7.046;2023-04-03T15:59:26;9.20;90.50
5796;DHT22;2924;51.458;7.046;2023-04-03T16:01:54;9.40;90.70
5796;DHT22;2924;51.458;7.046;2023-04-03T16:04:20;8.40;90.90
5796;DHT22;2924;51.458;7.046;2023-04-03T16:06:46;8.30;91.40
5796;DHT22;2924;51.458;7.046;2023-04-03T16:09:12;8.60;92.00
5796;DHT22;2924;51.458;7.046;2023-04-03T16:11:37;8.30;91.90
5796;DHT22;2924;51.458;7.046;2023-04-03T16:14:07;8.60;91.60
5796;DHT22;2924;51.458;7.046;2023-04-03T16:16:33;8.70;91.70
5796;DHT22;2924;51.458;7.046;2023-04-03T16:18:58;9.10;91.30
5796;DHT22;2924;51.458;7.046;2023-04-03T16:21:24;9.20;90.90
5796;DHT22;2924;51.458;7.046;2023-04-03T16:23:50;8.90;90.90
5796;DHT22;2924;51.458;7.046;2023-04-03T16:26:16;9.10;91.20
5796;DHT22;2924;51.458;7.046;2023-04-03T16:28:43;8.90;91.10
5796;DHT22;2924;51.458;7.046;2023-04-03T16:31:09;9.20;91.10
5796;DHT22;2924;51.458;7.046;2023-04-03T16:33:35;8.50;91.00
5796;DHT22;2924;51.458;7.046;2023-04-03T16:36:03;8.70;91.30
5796;DHT22;2924;51.458;7.046;2023-04-03T16:38:28;8.50;91.70
5796;DHT22;2924;51.458;7.046;2023-04-03T16:40:54;8.00;91.30
5796;DHT22;2924;51.458;7.046;2023-04-03T16:43:22;7.50;92.30
5796;DHT22;2924;51.458;7.046;2023-04-03T16:45:48;7.30;92.70
5796;DHT22;2924;51.458;7.046;2023-04-03T16:48:13;7.40;93.10
5796;DHT22;2924;51.458;7.046;2023-04-03T16:50:39;7.30;92.90
5796;DHT22;2924;51.458;7.046;2023-04-03T16:53:05;7.30;93.40
5796;DHT22;2924;51.458;7.046;2023-04-03T16:55:33;7.20;93.80
5796;DHT22;2924;51.458;7.046;2023-04-03T16:57:59;6.80;93.40
5796;DHT22;2924;51.458;7.046;2023-04-03T17:00:25;6.60;93.30
5796;DHT22;2924;51.458;7.046;2023-04-03T17:02:50;6.60;92.80
5796;DHT22;2924;51.458;7.046;2023-04-03T17:05:16;6.40;93.10
5796;DHT22;2924;51.458;7.046;2023-04-03T17:07:41;6.40;93.50
5796;DHT22;2924;51.458;7.046;2023-04-03T17:10:07;6.30;93.70
5796;DHT22;2924;51.458;7.046;2023-04-03T17:12:33;6.20;94.20
5796;DHT22;2924;51.458;7.046;2023-04-03T17:14:59;6.20;94.00
5796;DHT22;2924;51.458;7.046;2023-04-03T17:17:25;6.20;94.10
5796;DHT22;2924;51.458;7.046;2023-04-03T17:19:51;6.10;94.20
5796;DHT22;2924;51.458;7.046;2023-04-03T17:22:19;6.10;94.60
5796;DHT22;2924;51.458;7.046;2023-04-03T17:24:44;6.10;95.00
5796;DHT22;2924;51.458;7.046;2023-04-03T17:27:10;6.00;95.20
5796;DHT22;2924;51.458;7.046;2023-04-03T17:29:36;6.00;95.30
5796;DHT22;2924;51.458;7.046;2023-04-03T17:32:02;6.00;94.90
5796;DHT22;2924;51.458;7.046;2023-04-03T17:34:27;5.90;95.00
5796;DHT22;2924;51.458;7.046;2023-04-03T17:36:53;5.90;95.30
5796;DHT22;2924;51.458;7.046;2023-04-03T17:39:19;5.80;95.70
5796;DHT22;2924;51.458;7.046;2023-04-03T17:41:45;5.70;95.50
5796;DHT22;2924;51.458;7.046;2023-04-03T17:44:11;5.60;95.40
5796;DHT22;2924;51.458;7.046;2023-04-03T17:46:37;5.70;94.90
5796;DHT22;2924;51.458;7.046;2023-04-03T17:49:02;5.60;95.10
5796;DHT22;2924;51.458;7.046;2023-04-03T17:51:29;5.50;95.10
5796;DHT22;2924;51.458;7.046;2023-04-03T17:53:56;5.50;95.20
5796;DHT22;2924;51.458;7.046;2023-04-03T17:56:24;5.50;95.70
5796;DHT22;2924;51.458;7.046;2023-04-03T17:58:52;5.40;95.70
5796;DHT22;2924;51.458;7.046;2023-04-03T18:01:30;5.40;96.00
5796;DHT22;2924;51.458;7.046;2023-04-03T18:03:59;5.30;96.10